sensor_id;sensor_type;location;lat;lon;timestamp;pressure;altitude;pressure_sealevel;temperature;humidity
73085;BME280;62974;49.460;10.892;2023-02-01T00:01:07;98209.38;;;2.66;100.00
73085;BME280;62974;49.460;10.892;2023-02-01T00:03:35;98202.09;;;2.68;100.00
73085;BME280;62974;49.460;10.892;2023-02-01T00:06:03;98214.38;;;2.69;100.00
73085;BME280;62974;49.460;10.892;2023-02-01T00:08:31;98207.09;;;2.71;100.00
73085;BME280;62974;49.460;10.892;2023-02-01T00:10:59;98203.59;;;2.71;100.00
73085;BME280;62974;49.460;10.892;2023-02-01T00:13:28;98209.75;;;2.71;100.00
73085;BME280;62974;49.460;10.892;2023-02-01T00:16:03;98210.47;;;2.73;100.00
73085;BME280;62974;49.460;10.892;2023-02-01T00:18:31;98214.81;;;2.74;100.00
73085;BME280;62974;49.460;10.892;2023-02-01T00:20:59;98223.56;;;2.75;100.00
73085;BME280;62974;49.460;10.892;2023-02-01T00:23:26;98211.16;;;2.75;100.00
73085;BME280;62974;49.460;10.892;2023-02-01T00:25:54;98212.81;;;2.76;100.00
73085;BME280;62974;49.460;10.892;2023-02-01T00:28:21;98212.97;;;2.75;100.00
73085;BME280;62974;49.460;10.892;2023-02-01T00:30:55;98194.25;;;2.76;100.00
73085;BME280;62974;49.460;10.892;2023-02-01T00:33:24;98201.25;;;2.77;100.00
73085;BME280;62974;49.460;10.892;2023-02-01T00:35:56;98203.06;;;2.77;100.00
73085;BME280;62974;49.460;10.892;2023-02-01T00:38:23;98198.84;;;2.84;100.00
73085;BME280;62974;49.460;10.892;2023-02-01T00:40:51;98202.63;;;2.81;100.00
73085;BME280;62974;49.460;10.892;2023-02-01T00:43:18;98200.97;;;2.80;100.00
73085;BME280;62974;49.460;10.892;2023-02-01T00:45:46;98205.72;;;2.77;100.00
73085;BME280;62974;49.460;10.892;2023-02-01T00:48:14;98199.28;;;2.79;100.00
73085;BME280;62974;49.460;10.892;2023-02-01T00:50:43;98199.44;;;2.78;100.00
73085;BME280;62974;49.460;10.892;2023-02-01T00:53:11;98196.63;;;2.79;100.00
73085;BME280;62974;49.460;10.892;2023-02-01T00:55:39;98189.50;;;2.80;100.00
73085;BME280;62974;49.460;10.892;2023-02-01T00:58:06;98196.38;;;2.82;100.00
73085;BME280;62974;49.460;10.892;2023-02-01T01:00:35;98188.84;;;2.78;100.00
73085;BME280;62974;49.460;10.892;2023-02-01T01:03:03;98179.06;;;2.78;100.00
73085;BME280;62974;49.460;10.892;2023-02-01T01:05:45;98178.06;;;2.79;100.00
73085;BME280;62974;49.460;10.892;2023-02-01T01:08:13;98175.00;;;2.84;100.00
73085;BME280;62974;49.460;10.892;2023-02-01T01:10:42;98186.44;;;2.75;100.00
73085;BME280;62974;49.460;10.892;2023-02-01T01:13:10;98179.31;;;2.75;100.00
73085;BME280;62974;49.460;10.892;2023-02-01T01:15:38;98196.06;;;2.76;100.00
73085;BME280;62974;49.460;10.892;2023-02-01T01:18:06;98186.72;;;2.72;100.00
73085;BME280;62974;49.460;10.892;2023-02-01T01:20:34;98193.13;;;2.79;100.00
73085;BME280;62974;49.460;10.892;2023-02-01T01:23:04;98190.09;;;2.74;100.00
73085;BME280;62974;49.460;10.892;2023-02-01T01:25:32;98194.00;;;2.70;100.00
73085;BME280;62974;49.460;10.892;2023-02-01T01:27:59;98187.88;;;2.69;100.00
73085;BME280;62974;49.460;10.892;2023-02-01T01:30:27;98194.56;;;2.73;100.00
73085;BME280;62974;49.460;10.892;2023-02-01T01:32:54;98193.28;;;2.68;100.00
73085;BME280;62974;49.460;10.892;2023-02-01T01:35:22;98184.38;;;2.69;100.00
73085;BME280;62974;49.460;10.892;2023-02-01T01:37:49;98182.28;;;2.72;100.00
73085;BME280;62974;49.460;10.892;2023-02-01T01:40:18;98179.75;;;2.71;100.00
73085;BME280;62974;49.460;10.892;2023-02-01T01:42:46;98180.75;;;2.70;100.00
73085;BME280;62974;49.460;10.892;2023-02-01T01:45:22;98175.56;;;2.68;100.00
73085;BME280;62974;49.460;10.892;2023-02-01T01:47:52;98171.00;;;2.70;100.00
73085;BME280;62974;49.460;10.892;2023-02-01T01:50:24;98172.78;;;2.70;100.00
73085;BME280;62974;49.460;10.892;2023-02-01T01:52:53;98168.88;;;2.74;100.00
73085;BME280;62974;49.460;10.892;2023-02-01T01:55:25;98161.59;;;2.76;100.00
73085;BME280;62974;49.460;10.892;2023-02-01T01:57:57;98153.81;;;2.74;100.00
73085;BME280;62974;49.460;10.892;2023-02-01T02:00:27;98159.38;;;2.71;100.00
73085;BME280;62974;49.460;10.892;2023-02-01T02:02:58;98154.19;;;2.79;100.00
73085;BME280;62974;49.460;10.892;2023-02-01T02:05:30;98153.34;;;2.79;100.00
73085;BME280;62974;49.460;10.892;2023-02-01T02:07:59;98142.06;;;2.77;100.00
73085;BME280;62974;49.460;10.892;2023-02-01T02:10:29;98159.13;;;2.74;100.00
73085;BME280;62974;49.460;10.892;2023-02-01T02:13:12;98152.25;;;2.72;100.00
73085;BME280;62974;49.460;10.892;2023-02-01T02:15:44;98150.03;;;2.77;100.00
73085;BME280;62974;49.460;10.892;2023-02-01T02:18:20;98150.16;;;2.75;100.00
73085;BME280;62974;49.460;10.892;2023-02-01T02:21:11;98143.75;;;2.78;100.00
73085;BME280;62974;49.460;10.892;2023-02-01T02:24:19;98134.81;;;2.79;100.00
73085;BME280;62974;49.460;10.892;2023-02-01T02:27:15;98141.09;;;2.78;100.00
73085;BME280;62974;49.460;10.892;2023-02-01T02:30:32;98140.94;;;2.79;100.00
73085;BME280;62974;49.460;10.892;2023-02-01T02:36:18;98138.44;;;2.78;100.00
73085;BME280;62974;49.460;10.892;2023-02-01T02:38:52;98135.94;;;2.76;100.00
73085;BME280;62974;49.460;10.892;2023-02-01T02:41:27;98133.69;;;2.81;100.00
73085;BME280;62974;49.460;10.892;2023-02-01T02:44:21;98136.78;;;2.77;100.00
73085;BME280;62974;49.460;10.892;2023-02-01T02:47:13;98133.69;;;2.81;100.00
73085;BME280;62974;49.460;10.892;2023-02-01T02:49:55;98141.50;;;2.83;100.00
73085;BME280;62974;49.460;10.892;2023-02-01T02:52:45;98134.53;;;2.82;100.00
73085;BME280;62974;49.460;10.892;2023-02-01T02:55:34;98135.22;;;2.84;100.00
73085;BME280;62974;49.460;10.892;2023-02-01T02:58:05;98140.38;;;2.86;100.00
73085;BME280;62974;49.460;10.892;2023-02-01T03:00:51;98126.28;;;2.85;100.00
73085;BME280;62974;49.460;10.892;2023-02-01T03:03:38;98122.94;;;2.83;100.00
73085;BME280;62974;49.460;10.892;2023-02-01T03:06:24;98116.94;;;2.81;100.00
73085;BME280;62974;49.460;10.892;2023-02-01T03:08:54;98110.25;;;2.77;100.00
73085;BME280;62974;49.460;10.892;2023-02-01T03:11:25;98098.41;;;2.71;100.00
73085;BME280;62974;49.460;10.892;2023-02-01T03:14:15;98094.91;;;2.80;100.00
73085;BME280;62974;49.460;10.892;2023-02-01T03:16:49;98095.50;;;2.74;100.00
73085;BME280;62974;49.460;10.892;2023-02-01T03:19:20;98091.41;;;2.80;100.00
73085;BME280;62974;49.460;10.892;2023-02-01T03:21:53;98097.13;;;2.75;100.00
73085;BME280;62974;49.460;10.892;2023-02-01T03:24:27;98103.28;;;2.76;100.00
73085;BME280;62974;49.460;10.892;2023-02-01T03:27:05;98099.06;;;2.83;100.00
73085;BME280;62974;49.460;10.892;2023-02-01T03:29:40;98109.00;;;2.71;100.00
73085;BME280;62974;49.460;10.892;2023-02-01T03:32:12;98094.66;;;2.74;100.00
73085;BME280;62974;49.460;10.892;2023-02-01T03:34:39;98092.00;;;2.74;100.00
73085;BME280;62974;49.460;10.892;2023-02-01T03:37:10;98084.03;;;2.74;100.00
73085;BME280;62974;49.460;10.892;2023-02-01T03:39:46;98097.28;;;2.74;100.00
73085;BME280;62974;49.460;10.892;2023-02-01T03:42:16;98089.06;;;2.77;100.00
73085;BME280;62974;49.460;10.892;2023-02-01T03:44:49;98097.53;;;2.80;100.00
73085;BME280;62974;49.460;10.892;2023-02-01T03:47:21;98080.25;;;2.76;100.00
73085;BME280;62974;49.460;10.892;2023-02-01T03:49:53;98090.97;;;2.84;100.00
73085;BME280;62974;49.460;10.892;2023-02-01T03:52:29;98072.53;;;2.83;100.00
73085;BME280;62974;49.460;10.892;2023-02-01T03:54:59;98075.78;;;2.87;100.00
73085;BME280;62974;49.460;10.892;2023-02-01T03:57:29;98082.72;;;2.88;100.00
73085;BME280;62974;49.460;10.892;2023-02-01T04:00:04;98079.53;;;2.84;100.00
73085;BME280;62974;49.460;10.892;2023-02-01T04:02:33;98074.38;;;2.82;100.00
73085;BME280;62974;49.460;10.892;2023-02-01T04:05:01;98081.50;;;2.82;100.00
73085;BME280;62974;49.460;10.892;2023-02-01T04:07:29;98082.34;;;2.82;100.00
73085;BME280;62974;49.460;10.892;2023-02-01T04:09:56;98071.03;;;2.80;100.00
73085;BME280;62974;49.460;10.892;2023-02-01T04:12:25;98075.66;;;2.78;100.00
73085;BME280;62974;49.460;10.892;2023-02-01T04:14:52;98079.69;;;2.82;100.00
73085;BME280;62974;49.460;10.892;2023-02-01T04:17:20;98073.53;;;2.82;100.00
73085;BME280;62974;49.460;10.892;2023-02-01T04:19:47;98075.19;;;2.83;100.00
73085;BME280;62974;49.460;10.892;2023-02-01T04:22:15;98084.00;;;2.83;100.00
73085;BME280;62974;49.460;10.892;2023-02-01T04:24:42;98077.16;;;2.81;100.00
73085;BME280;62974;49.460;10.892;2023-02-01T04:27:10;98070.59;;;2.85;100.00
73085;BME280;62974;49.460;10.892;2023-02-01T04:29:39;98073.69;;;2.80;100.00
73085;BME280;62974;49.460;10.892;2023-02-01T04:32:07;98072.84;;;2.80;100.00
73085;BME280;62974;49.460;10.892;2023-02-01T04:34:35;98071.63;;;2.74;100.00
73085;BME280;62974;49.460;10.892;2023-02-01T04:37:02;98073.28;;;2.75;100.00
73085;BME280;62974;49.460;10.892;2023-02-01T04:39:30;98070.50;;;2.77;100.00
73085;BME280;62974;49.460;10.892;2023-02-01T04:41:57;98071.22;;;2.69;100.00
73085;BME280;62974;49.460;10.892;2023-02-01T04:44:25;98069.25;;;2.71;100.00
73085;BME280;62974;49.460;10.892;2023-02-01T04:46:54;98063.41;;;2.68;100.00
73085;BME280;62974;49.460;10.892;2023-02-01T04:49:21;98069.97;;;2.64;100.00
73085;BME280;62974;49.460;10.892;2023-02-01T04:51:49;98071.50;;;2.66;100.00
73085;BME280;62974;49.460;10.892;2023-02-01T04:54:16;98065.47;;;2.74;100.00
73085;BME280;62974;49.460;10.892;2023-02-01T04:56:44;98071.22;;;2.69;100.00
73085;BME280;62974;49.460;10.892;2023-02-01T04:59:12;98073.22;;;2.58;100.00
73085;BME280;62974;49.460;10.892;2023-02-01T05:01:39;98072.91;;;2.61;100.00
73085;BME280;62974;49.460;10.892;2023-02-01T05:04:09;98069.00;;;2.55;100.00
73085;BME280;62974;49.460;10.892;2023-02-01T05:06:36;98067.19;;;2.65;100.00
73085;BME280;62974;49.460;10.892;2023-02-01T05:09:04;98067.38;;;2.54;100.00
73085;BME280;62974;49.460;10.892;2023-02-01T05:11:31;98055.91;;;2.54;100.00
73085;BME280;62974;49.460;10.892;2023-02-01T05:14:17;98061.81;;;2.75;100.00
73085;BME280;62974;49.460;10.892;2023-02-01T05:16:44;98059.13;;;2.57;100.00
73085;BME280;62974;49.460;10.892;2023-02-01T05:19:13;98055.22;;;2.52;100.00
73085;BME280;62974;49.460;10.892;2023-02-01T05:21:41;98067.75;;;2.59;100.00
73085;BME280;62974;49.460;10.892;2023-02-01T05:24:08;98065.09;;;2.59;100.00
73085;BME280;62974;49.460;10.892;2023-02-01T05:26:41;98066.94;;;2.49;100.00
73085;BME280;62974;49.460;10.892;2023-02-01T05:29:10;98063.59;;;2.47;100.00
73085;BME280;62974;49.460;10.892;2023-02-01T05:31:37;98068.47;;;2.52;100.00
73085;BME280;62974;49.460;10.892;2023-02-01T05:34:06;98072.78;;;2.53;100.00
73085;BME280;62974;49.460;10.892;2023-02-01T05:36:35;98074.66;;;2.43;100.00
73085;BME280;62974;49.460;10.892;2023-02-01T05:39:02;98074.22;;;2.38;100.00
73085;BME280;62974;49.460;10.892;2023-02-01T05:41:30;98076.59;;;2.41;100.00
73085;BME280;62974;49.460;10.892;2023-02-01T05:43:57;98076.34;;;2.34;100.00
73085;BME280;62974;49.460;10.892;2023-02-01T05:46:25;98073.81;;;2.32;100.00
73085;BME280;62974;49.460;10.892;2023-02-01T05:48:53;98067.13;;;2.28;100.00
73085;BME280;62974;49.460;10.892;2023-02-01T05:51:20;98073.81;;;2.32;100.00
73085;BME280;62974;49.460;10.892;2023-02-01T05:53:49;98077.72;;;2.28;100.00
73085;BME280;62974;49.460;10.892;2023-02-01T05:56:16;98070.88;;;2.35;100.00
73085;BME280;62974;49.460;10.892;2023-02-01T05:58:44;98062.97;;;2.26;100.00
73085;BME280;62974;49.460;10.892;2023-02-01T06:01:11;98073.00;;;2.22;100.00
73085;BME280;62974;49.460;10.892;2023-02-01T06:03:39;98059.19;;;2.28;100.00
73085;BME280;62974;49.460;10.892;2023-02-01T06:06:06;98055.84;;;2.26;100.00
73085;BME280;62974;49.460;10.892;2023-02-01T06:08:34;98048.03;;;2.34;100.00
73085;BME280;62974;49.460;10.892;2023-02-01T06:11:04;98039.78;;;2.38;100.00
73085;BME280;62974;49.460;10.892;2023-02-01T06:13:32;98044.38;;;2.35;100.00
73085;BME280;62974;49.460;10.892;2023-02-01T06:16:01;98049.72;;;2.26;100.00
73085;BME280;62974;49.460;10.892;2023-02-01T06:18:29;98032.97;;;2.25;100.00
73085;BME280;62974;49.460;10.892;2023-02-01T06:20:58;98037.03;;;2.20;100.00
73085;BME280;62974;49.460;10.892;2023-02-01T06:23:27;98043.16;;;2.20;100.00
73085;BME280;62974;49.460;10.892;2023-02-01T06:25:58;98041.75;;;2.26;100.00
73085;BME280;62974;49.460;10.892;2023-02-01T06:28:28;98033.81;;;2.26;100.00
73085;BME280;62974;49.460;10.892;2023-02-01T06:30:55;98038.94;;;2.27;100.00
73085;BME280;62974;49.460;10.892;2023-02-01T06:33:24;98030.88;;;2.29;100.00
73085;BME280;62974;49.460;10.892;2023-02-01T06:35:57;98041.88;;;2.34;100.00
73085;BME280;62974;49.460;10.892;2023-02-01T06:38:24;98046.94;;;2.18;100.00
73085;BME280;62974;49.460;10.892;2023-02-01T06:40:54;98044.13;;;2.29;100.00
73085;BME280;62974;49.460;10.892;2023-02-01T06:43:22;98049.44;;;2.19;100.00
73085;BME280;62974;49.460;10.892;2023-02-01T06:45:51;98046.91;;;2.27;100.00
73085;BME280;62974;49.460;10.892;2023-02-01T06:48:19;98056.22;;;2.51;100.00
73085;BME280;62974;49.460;10.892;2023-02-01T06:50:46;98042.56;;;2.36;100.00
73085;BME280;62974;49.460;10.892;2023-02-01T06:53:14;98041.97;;;2.52;100.00
73085;BME280;62974;49.460;10.892;2023-02-01T06:55:41;98051.88;;;2.50;100.00
73085;BME280;62974;49.460;10.892;2023-02-01T06:58:09;98042.44;;;2.28;100.00
73085;BME280;62974;49.460;10.892;2023-02-01T07:00:36;98052.66;;;2.23;100.00
73085;BME280;62974;49.460;10.892;2023-02-01T07:03:05;98055.97;;;2.34;100.00
73085;BME280;62974;49.460;10.892;2023-02-01T07:05:33;98045.94;;;2.28;100.00
73085;BME280;62974;49.460;10.892;2023-02-01T07:08:00;98042.97;;;2.41;100.00
73085;BME280;62974;49.460;10.892;2023-02-01T07:10:28;98046.75;;;2.39;100.00
73085;BME280;62974;49.460;10.892;2023-02-01T07:12:56;98050.63;;;2.44;100.00
73085;BME280;62974;49.460;10.892;2023-02-01T07:15:23;98052.59;;;2.42;100.00
73085;BME280;62974;49.460;10.892;2023-02-01T07:17:51;98041.72;;;2.45;100.00
73085;BME280;62974;49.460;10.892;2023-02-01T07:20:22;98059.41;;;2.45;100.00
73085;BME280;62974;49.460;10.892;2023-02-01T07:22:55;98056.22;;;2.51;100.00
73085;BME280;62974;49.460;10.892;2023-02-01T07:25:22;98047.25;;;2.52;100.00
73085;BME280;62974;49.460;10.892;2023-02-01T07:27:50;98048.41;;;2.49;100.00
73085;BME280;62974;49.460;10.892;2023-02-01T07:30:18;98057.72;;;2.53;100.00
73085;BME280;62974;49.460;10.892;2023-02-01T07:32:45;98057.31;;;2.58;100.00
73085;BME280;62974;49.460;10.892;2023-02-01T07:35:13;98051.84;;;2.59;100.00
73085;BME280;62974;49.460;10.892;2023-02-01T07:37:42;98059.53;;;2.62;100.00
73085;BME280;62974;49.460;10.892;2023-02-01T07:40:11;98056.56;;;2.65;100.00
73085;BME280;62974;49.460;10.892;2023-02-01T07:42:39;98064.81;;;2.62;100.00
73085;BME280;62974;49.460;10.892;2023-02-01T07:45:07;98066.88;;;2.68;100.00
73085;BME280;62974;49.460;10.892;2023-02-01T07:47:46;98063.81;;;2.73;100.00
73085;BME280;62974;49.460;10.892;2023-02-01T07:50:14;98063.09;;;2.71;100.00
73085;BME280;62974;49.460;10.892;2023-02-01T07:52:43;98064.22;;;2.78;100.00
73085;BME280;62974;49.460;10.892;2023-02-01T07:55:10;98059.88;;;2.77;100.00
73085;BME280;62974;49.460;10.892;2023-02-01T07:57:38;98057.66;;;2.72;100.00
73085;BME280;62974;49.460;10.892;2023-02-01T08:00:06;98053.75;;;2.76;100.00
73085;BME280;62974;49.460;10.892;2023-02-01T08:02:52;98062.22;;;2.80;100.00
73085;BME280;62974;49.460;10.892;2023-02-01T08:05:19;98048.44;;;2.76;100.00
73085;BME280;62974;49.460;10.892;2023-02-01T08:07:49;98047.75;;;2.74;100.00
73085;BME280;62974;49.460;10.892;2023-02-01T08:10:17;98059.34;;;2.73;100.00
73085;BME280;62974;49.460;10.892;2023-02-01T08:12:45;98055.00;;;2.72;100.00
73085;BME280;62974;49.460;10.892;2023-02-01T08:15:15;98042.28;;;2.76;100.00
73085;BME280;62974;49.460;10.892;2023-02-01T08:17:46;98040.59;;;2.84;100.00
73085;BME280;62974;49.460;10.892;2023-02-01T08:20:14;98055.66;;;2.84;100.00
73085;BME280;62974;49.460;10.892;2023-02-01T08:22:42;98046.97;;;2.92;100.00
73085;BME280;62974;49.460;10.892;2023-02-01T08:25:11;98045.03;;;2.94;100.00
73085;BME280;62974;49.460;10.892;2023-02-01T08:27:38;98048.03;;;2.99;100.00
73085;BME280;62974;49.460;10.892;2023-02-01T08:30:07;98051.00;;;2.96;100.00
73085;BME280;62974;49.460;10.892;2023-02-01T08:32:35;98049.19;;;2.96;100.00
73085;BME280;62974;49.460;10.892;2023-02-01T08:35:03;98045.41;;;2.99;100.00
73085;BME280;62974;49.460;10.892;2023-02-01T08:37:31;98061.56;;;3.05;100.00
73085;BME280;62974;49.460;10.892;2023-02-01T08:39:58;98069.66;;;3.04;100.00
73085;BME280;62974;49.460;10.892;2023-02-01T08:42:27;98077.19;;;3.08;100.00
73085;BME280;62974;49.460;10.892;2023-02-01T08:45:09;98079.72;;;3.10;100.00
73085;BME280;62974;49.460;10.892;2023-02-01T08:47:37;98068.25;;;3.09;100.00
73085;BME280;62974;49.460;10.892;2023-02-01T08:50:05;98080.56;;;3.10;100.00
73085;BME280;62974;49.460;10.892;2023-02-01T08:52:33;98073.69;;;3.08;100.00
73085;BME280;62974;49.460;10.892;2023-02-01T08:55:04;98064.63;;;3.10;100.00
73085;BME280;62974;49.460;10.892;2023-02-01T08:57:33;98048.84;;;3.09;100.00
73085;BME280;62974;49.460;10.892;2023-02-01T09:00:01;98060.31;;;3.09;100.00
73085;BME280;62974;49.460;10.892;2023-02-01T09:02:28;98068.94;;;3.11;100.00
73085;BME280;62974;49.460;10.892;2023-02-01T09:04:56;98071.31;;;3.14;100.00
73085;BME280;62974;49.460;10.892;2023-02-01T09:07:26;98075.38;;;3.09;100.00
73085;BME280;62974;49.460;10.892;2023-02-01T09:09:53;98082.44;;;2.91;100.00
73085;BME280;62974;49.460;10.892;2023-02-01T09:12:22;98099.66;;;2.67;100.00
73085;BME280;62974;49.460;10.892;2023-02-01T09:14:51;98110.44;;;2.56;100.00
73085;BME280;62974;49.460;10.892;2023-02-01T09:17:19;98101.94;;;2.43;100.00
73085;BME280;62974;49.460;10.892;2023-02-01T09:19:46;98097.50;;;2.44;100.00
73085;BME280;62974;49.460;10.892;2023-02-01T09:22:14;98115.53;;;2.30;100.00
73085;BME280;62974;49.460;10.892;2023-02-01T09:24:41;98110.63;;;2.35;100.00
73085;BME280;62974;49.460;10.892;2023-02-01T09:27:11;98116.78;;;2.26;100.00
73085;BME280;62974;49.460;10.892;2023-02-01T09:29:40;98150.38;;;2.26;100.00
73085;BME280;62974;49.460;10.892;2023-02-01T09:32:09;98139.22;;;2.22;100.00
73085;BME280;62974;49.460;10.892;2023-02-01T09:34:37;98120.13;;;2.28;100.00
73085;BME280;62974;49.460;10.892;2023-02-01T09:37:04;98113.13;;;2.27;100.00
73085;BME280;62974;49.460;10.892;2023-02-01T09:39:31;98118.59;;;2.26;100.00
73085;BME280;62974;49.460;10.892;2023-02-01T09:42:08;98128.09;;;2.19;100.00
73085;BME280;62974;49.460;10.892;2023-02-01T09:44:57;98137.69;;;2.29;100.00
73085;BME280;62974;49.460;10.892;2023-02-01T09:47:29;98145.34;;;2.32;100.00
73085;BME280;62974;49.460;10.892;2023-02-01T09:50:08;98151.03;;;2.47;100.00
73085;BME280;62974;49.460;10.892;2023-02-01T09:52:44;98146.72;;;2.65;100.00
73085;BME280;62974;49.460;10.892;2023-02-01T09:55:16;98147.91;;;2.90;100.00
73085;BME280;62974;49.460;10.892;2023-02-01T09:57:51;98161.66;;;3.13;100.00
73085;BME280;62974;49.460;10.892;2023-02-01T10:00:26;98164.19;;;3.14;100.00
73085;BME280;62974;49.460;10.892;2023-02-01T10:02:57;98156.59;;;3.19;100.00
73085;BME280;62974;49.460;10.892;2023-02-01T10:05:49;98161.75;;;3.21;100.00
73085;BME280;62974;49.460;10.892;2023-02-01T10:08:26;98159.09;;;3.21;100.00
73085;BME280;62974;49.460;10.892;2023-02-01T10:11:04;98164.28;;;3.22;100.00
73085;BME280;62974;49.460;10.892;2023-02-01T10:13:48;98151.59;;;3.16;100.00
73085;BME280;62974;49.460;10.892;2023-02-01T10:16:31;98166.53;;;3.17;100.00
73085;BME280;62974;49.460;10.892;2023-02-01T10:19:16;98165.97;;;3.14;100.00
73085;BME280;62974;49.460;10.892;2023-02-01T10:21:52;98163.47;;;3.12;100.00
73085;BME280;62974;49.460;10.892;2023-02-01T10:24:31;98160.50;;;3.15;100.00
73085;BME280;62974;49.460;10.892;2023-02-01T10:27:07;98159.53;;;3.16;100.00
73085;BME280;62974;49.460;10.892;2023-02-01T10:29:39;98164.00;;;3.16;100.00
73085;BME280;62974;49.460;10.892;2023-02-01T10:32:12;98169.19;;;3.17;100.00
73085;BME280;62974;49.460;10.892;2023-02-01T10:34:42;98161.91;;;3.19;100.00
73085;BME280;62974;49.460;10.892;2023-02-01T10:37:18;98172.50;;;3.19;100.00
73085;BME280;62974;49.460;10.892;2023-02-01T10:39:48;98161.63;;;3.22;100.00
73085;BME280;62974;49.460;10.892;2023-02-01T10:42:16;98154.88;;;3.28;100.00
73085;BME280;62974;49.460;10.892;2023-02-01T10:44:45;98157.13;;;3.23;100.00
73085;BME280;62974;49.460;10.892;2023-02-01T10:47:14;98144.97;;;3.30;100.00
73085;BME280;62974;49.460;10.892;2023-02-01T10:49:52;98152.78;;;3.31;100.00
73085;BME280;62974;49.460;10.892;2023-02-01T10:52:25;98145.66;;;3.32;100.00
73085;BME280;62974;49.460;10.892;2023-02-01T10:54:55;98154.41;;;3.42;100.00
73085;BME280;62974;49.460;10.892;2023-02-01T10:57:24;98163.56;;;3.30;100.00
73085;BME280;62974;49.460;10.892;2023-02-01T10:59:55;98143.63;;;3.44;100.00
73085;BME280;62974;49.460;10.892;2023-02-01T11:02:26;98148.00;;;3.35;100.00
73085;BME280;62974;49.460;10.892;2023-02-01T11:05:03;98129.97;;;3.39;100.00
73085;BME280;62974;49.460;10.892;2023-02-01T11:07:32;98135.88;;;3.60;100.00
73085;BME280;62974;49.460;10.892;2023-02-01T11:10:00;98127.38;;;3.56;100.00
73085;BME280;62974;49.460;10.892;2023-02-01T11:12:29;98123.13;;;3.63;96.68
73085;BME280;62974;49.460;10.892;2023-02-01T11:15:02;98135.88;;;3.60;97.25
73085;BME280;62974;49.460;10.892;2023-02-01T11:17:34;98126.22;;;3.59;96.41
73085;BME280;62974;49.460;10.892;2023-02-01T11:20:13;98119.72;;;3.71;95.17
73085;BME280;62974;49.460;10.892;2023-02-01T11:22:46;98120.91;;;3.59;95.70
73085;BME280;62974;49.460;10.892;2023-02-01T11:25:15;98104.00;;;3.60;95.22
73085;BME280;62974;49.460;10.892;2023-02-01T11:27:43;98098.28;;;3.55;96.37
73085;BME280;62974;49.460;10.892;2023-02-01T11:30:27;98099.03;;;3.47;97.18
73085;BME280;62974;49.460;10.892;2023-02-01T11:32:58;98094.75;;;3.64;96.61
73085;BME280;62974;49.460;10.892;2023-02-01T11:35:28;98097.81;;;3.69;96.67
73085;BME280;62974;49.460;10.892;2023-02-01T11:37:58;98092.63;;;3.67;97.35
73085;BME280;62974;49.460;10.892;2023-02-01T11:40:27;98089.13;;;3.67;97.33
73085;BME280;62974;49.460;10.892;2023-02-01T11:42:57;98089.75;;;3.61;97.14
73085;BME280;62974;49.460;10.892;2023-02-01T11:45:26;98085.19;;;3.53;97.29
73085;BME280;62974;49.460;10.892;2023-02-01T11:47:55;98087.84;;;3.53;99.42
73085;BME280;62974;49.460;10.892;2023-02-01T11:50:32;98084.50;;;3.51;98.67
73085;BME280;62974;49.460;10.892;2023-02-01T11:53:17;98076.25;;;3.54;99.11
73085;BME280;62974;49.460;10.892;2023-02-01T11:55:56;98078.81;;;3.64;98.30
73085;BME280;62974;49.460;10.892;2023-02-01T11:58:50;98066.34;;;3.74;96.08
73085;BME280;62974;49.460;10.892;2023-02-01T12:01:34;98070.63;;;3.75;95.58
73085;BME280;62974;49.460;10.892;2023-02-01T12:04:40;98085.38;;;3.69;96.02
73085;BME280;62974;49.460;10.892;2023-02-01T12:07:17;98090.69;;;3.69;95.54
73085;BME280;62974;49.460;10.892;2023-02-01T12:10:03;98082.19;;;3.66;95.70
73085;BME280;62974;49.460;10.892;2023-02-01T12:12:39;98069.13;;;3.72;93.98
73085;BME280;62974;49.460;10.892;2023-02-01T12:15:22;98067.63;;;3.70;94.34
73085;BME280;62974;49.460;10.892;2023-02-01T12:18:17;98071.25;;;3.69;94.68
73085;BME280;62974;49.460;10.892;2023-02-01T12:21:06;98061.47;;;3.69;94.79
73085;BME280;62974;49.460;10.892;2023-02-01T12:23:59;98061.16;;;3.72;95.01
73085;BME280;62974;49.460;10.892;2023-02-01T12:26:46;98044.91;;;3.75;94.41
73085;BME280;62974;49.460;10.892;2023-02-01T12:29:39;98052.75;;;3.77;93.85
73085;BME280;62974;49.460;10.892;2023-02-01T12:32:23;98040.88;;;3.71;93.80
73085;BME280;62974;49.460;10.892;2023-02-01T12:35:13;98034.16;;;3.77;93.95
73085;BME280;62974;49.460;10.892;2023-02-01T12:37:54;98031.19;;;3.80;94.43
73085;BME280;62974;49.460;10.892;2023-02-01T12:40:35;98038.38;;;3.88;92.95
73085;BME280;62974;49.460;10.892;2023-02-01T12:43:09;98026.41;;;3.84;92.19
73085;BME280;62974;49.460;10.892;2023-02-01T12:45:43;98035.41;;;3.91;91.70
73085;BME280;62974;49.460;10.892;2023-02-01T12:48:25;98032.00;;;3.98;91.63
73085;BME280;62974;49.460;10.892;2023-02-01T12:50:56;98031.72;;;4.01;91.44
73085;BME280;62974;49.460;10.892;2023-02-01T12:53:34;98033.59;;;3.91;92.32
73085;BME280;62974;49.460;10.892;2023-02-01T12:56:10;98037.84;;;3.84;92.12
73085;BME280;62974;49.460;10.892;2023-02-01T12:58:43;98040.31;;;3.77;93.37
73085;BME280;62974;49.460;10.892;2023-02-01T13:01:14;98035.19;;;3.66;94.06
73085;BME280;62974;49.460;10.892;2023-02-01T13:03:52;98031.16;;;3.62;94.92
73085;BME280;62974;49.460;10.892;2023-02-01T13:06:24;98028.69;;;3.61;94.21
73085;BME280;62974;49.460;10.892;2023-02-01T13:08:58;98031.94;;;3.55;95.02
73085;BME280;62974;49.460;10.892;2023-02-01T13:11:31;98032.94;;;3.54;95.51
73085;BME280;62974;49.460;10.892;2023-02-01T13:14:04;98031.78;;;3.56;95.64
73085;BME280;62974;49.460;10.892;2023-02-01T13:16:35;98015.72;;;3.58;95.19
73085;BME280;62974;49.460;10.892;2023-02-01T13:19:10;98011.47;;;3.65;94.17
73085;BME280;62974;49.460;10.892;2023-02-01T13:21:44;98008.06;;;3.72;94.56